sensor_id;sensor_type;location;lat;lon;timestamp;P1;durP1;ratioP1;P2;durP2;ratioP2
20170;SDS011;10245;51.344;6.620;2022-12-07T00:02:08;34.30;;;22.60;;
20170;SDS011;10245;51.344;6.620;2022-12-07T00:04:31;32.37;;;22.93;;
20170;SDS011;10245;51.344;6.620;2022-12-07T00:06:55;34.30;;;23.10;;
20170;SDS011;10245;51.344;6.620;2022-12-07T00:09:18;35.07;;;23.13;;
20170;SDS011;10245;51.344;6.620;2022-12-07T00:11:42;39.53;;;23.57;;
20170;SDS011;10245;51.344;6.620;2022-12-07T00:14:09;30.37;;;21.80;;
20170;SDS011;10245;51.344;6.620;2022-12-07T00:16:36;35.93;;;23.03;;
20170;SDS011;10245;51.344;6.620;2022-12-07T00:18:59;32.80;;;22.27;;
20170;SDS011;10245;51.344;6.620;2022-12-07T00:21:24;34.30;;;22.87;;
20170;SDS011;10245;51.344;6.620;2022-12-07T00:23:50;35.13;;;22.73;;
20170;SDS011;10245;51.344;6.620;2022-12-07T00:26:16;34.23;;;21.83;;
20170;SDS011;10245;51.344;6.620;2022-12-07T00:28:41;35.90;;;24.63;;
20170;SDS011;10245;51.344;6.620;2022-12-07T00:31:10;37.90;;;24.13;;
20170;SDS011;10245;51.344;6.620;2022-12-07T00:33:35;38.10;;;23.47;;
20170;SDS011;10245;51.344;6.620;2022-12-07T00:36:00;34.70;;;23.37;;
20170;SDS011;10245;51.344;6.620;2022-12-07T00:38:27;29.77;;;22.67;;
20170;SDS011;10245;51.344;6.620;2022-12-07T00:40:55;34.43;;;23.50;;
20170;SDS011;10245;51.344;6.620;2022-12-07T00:43:19;35.57;;;23.90;;
20170;SDS011;10245;51.344;6.620;2022-12-07T00:45:42;32.60;;;23.53;;
20170;SDS011;10245;51.344;6.620;2022-12-07T00:48:07;34.70;;;24.33;;
20170;SDS011;10245;51.344;6.620;2022-12-07T00:50:30;36.57;;;24.20;;
20170;SDS011;10245;51.344;6.620;2022-12-07T00:52:53;38.93;;;25.73;;
20170;SDS011;10245;51.344;6.620;2022-12-07T00:55:17;35.17;;;24.07;;
20170;SDS011;10245;51.344;6.620;2022-12-07T00:57:40;36.63;;;24.93;;
20170;SDS011;10245;51.344;6.620;2022-12-07T01:00:04;34.87;;;24.67;;
20170;SDS011;10245;51.344;6.620;2022-12-07T01:02:29;35.40;;;24.13;;
20170;SDS011;10245;51.344;6.620;2022-12-07T01:04:53;35.37;;;24.67;;
20170;SDS011;10245;51.344;6.620;2022-12-07T01:07:17;35.27;;;24.10;;
20170;SDS011;10245;51.344;6.620;2022-12-07T01:09:40;33.43;;;24.30;;
20170;SDS011;10245;51.344;6.620;2022-12-07T01:12:04;33.70;;;24.07;;
20170;SDS011;10245;51.344;6.620;2022-12-07T01:14:27;38.23;;;24.20;;
20170;SDS011;10245;51.344;6.620;2022-12-07T01:16:51;36.70;;;23.83;;
20170;SDS011;10245;51.344;6.620;2022-12-07T01:19:14;37.83;;;23.80;;
20170;SDS011;10245;51.344;6.620;2022-12-07T01:21:39;34.63;;;24.53;;
20170;SDS011;10245;51.344;6.620;2022-12-07T01:24:03;34.67;;;23.43;;
20170;SDS011;10245;51.344;6.620;2022-12-07T01:26:28;36.60;;;24.07;;
20170;SDS011;10245;51.344;6.620;2022-12-07T01:28:52;35.80;;;23.90;;
20170;SDS011;10245;51.344;6.620;2022-12-07T01:31:17;35.60;;;23.77;;
20170;SDS011;10245;51.344;6.620;2022-12-07T01:33:43;31.87;;;22.80;;
20170;SDS011;10245;51.344;6.620;2022-12-07T01:36:15;33.10;;;23.50;;
20170;SDS011;10245;51.344;6.620;2022-12-07T01:38:42;37.10;;;24.60;;
20170;SDS011;10245;51.344;6.620;2022-12-07T01:41:06;35.83;;;23.53;;
20170;SDS011;10245;51.344;6.620;2022-12-07T01:43:30;37.67;;;24.27;;
20170;SDS011;10245;51.344;6.620;2022-12-07T01:45:55;32.33;;;22.60;;
20170;SDS011;10245;51.344;6.620;2022-12-07T01:48:20;33.40;;;23.27;;
20170;SDS011;10245;51.344;6.620;2022-12-07T01:50:48;32.00;;;23.20;;
20170;SDS011;10245;51.344;6.620;2022-12-07T01:53:12;38.13;;;24.63;;
20170;SDS011;10245;51.344;6.620;2022-12-07T01:55:38;35.97;;;24.67;;
20170;SDS011;10245;51.344;6.620;2022-12-07T01:58:05;39.73;;;25.17;;
20170;SDS011;10245;51.344;6.620;2022-12-07T02:00:29;38.03;;;24.20;;
20170;SDS011;10245;51.344;6.620;2022-12-07T02:02:53;35.83;;;24.97;;
20170;SDS011;10245;51.344;6.620;2022-12-07T02:05:20;37.60;;;24.33;;
20170;SDS011;10245;51.344;6.620;2022-12-07T02:07:46;36.47;;;24.50;;
20170;SDS011;10245;51.344;6.620;2022-12-07T02:10:12;35.57;;;25.37;;
20170;SDS011;10245;51.344;6.620;2022-12-07T02:12:39;33.33;;;24.33;;
20170;SDS011;10245;51.344;6.620;2022-12-07T02:15:03;33.83;;;23.43;;
20170;SDS011;10245;51.344;6.620;2022-12-07T02:17:28;34.50;;;24.27;;
20170;SDS011;10245;51.344;6.620;2022-12-07T02:20:09;40.03;;;26.73;;
20170;SDS011;10245;51.344;6.620;2022-12-07T02:22:52;38.17;;;25.20;;
20170;SDS011;10245;51.344;6.620;2022-12-07T02:25:36;43.00;;;27.17;;
20170;SDS011;10245;51.344;6.620;2022-12-07T02:28:25;35.93;;;25.73;;
20170;SDS011;10245;51.344;6.620;2022-12-07T02:30:56;36.70;;;24.03;;
20170;SDS011;10245;51.344;6.620;2022-12-07T02:33:26;35.07;;;24.03;;
20170;SDS011;10245;51.344;6.620;2022-12-07T02:35:55;40.03;;;25.97;;
20170;SDS011;10245;51.344;6.620;2022-12-07T02:38:25;46.03;;;27.67;;
20170;SDS011;10245;51.344;6.620;2022-12-07T02:40:54;40.37;;;27.40;;
20170;SDS011;10245;51.344;6.620;2022-12-07T02:43:23;44.67;;;26.37;;
20170;SDS011;10245;51.344;6.620;2022-12-07T02:45:49;37.20;;;26.87;;
20170;SDS011;10245;51.344;6.620;2022-12-07T02:48:17;39.93;;;26.57;;
20170;SDS011;10245;51.344;6.620;2022-12-07T02:50:44;37.80;;;25.33;;
20170;SDS011;10245;51.344;6.620;2022-12-07T02:55:52;39.43;;;25.53;;
20170;SDS011;10245;51.344;6.620;2022-12-07T02:58:20;38.40;;;26.43;;
20170;SDS011;10245;51.344;6.620;2022-12-07T03:00:52;40.40;;;26.67;;
20170;SDS011;10245;51.344;6.620;2022-12-07T03:03:29;37.20;;;26.27;;
20170;SDS011;10245;51.344;6.620;2022-12-07T03:05:59;39.43;;;25.90;;
20170;SDS011;10245;51.344;6.620;2022-12-07T03:08:37;37.13;;;25.63;;
20170;SDS011;10245;51.344;6.620;2022-12-07T03:11:11;35.03;;;25.23;;
20170;SDS011;10245;51.344;6.620;2022-12-07T03:13:45;36.20;;;25.53;;
20170;SDS011;10245;51.344;6.620;2022-12-07T03:16:15;35.00;;;25.30;;
20170;SDS011;10245;51.344;6.620;2022-12-07T03:18:44;39.83;;;26.70;;
20170;SDS011;10245;51.344;6.620;2022-12-07T03:21:14;39.17;;;25.37;;
20170;SDS011;10245;51.344;6.620;2022-12-07T03:23:45;36.30;;;24.83;;
20170;SDS011;10245;51.344;6.620;2022-12-07T03:26:14;39.50;;;26.03;;
20170;SDS011;10245;51.344;6.620;2022-12-07T03:28:40;36.03;;;24.87;;
20170;SDS011;10245;51.344;6.620;2022-12-07T03:31:10;36.60;;;26.40;;
20170;SDS011;10245;51.344;6.620;2022-12-07T03:33:40;39.60;;;26.50;;
20170;SDS011;10245;51.344;6.620;2022-12-07T03:36:11;35.87;;;24.90;;
20170;SDS011;10245;51.344;6.620;2022-12-07T03:38:40;39.23;;;24.67;;
20170;SDS011;10245;51.344;6.620;2022-12-07T03:41:08;38.97;;;25.97;;
20170;SDS011;10245;51.344;6.620;2022-12-07T03:43:37;38.55;;;24.35;;
20170;SDS011;10245;51.344;6.620;2022-12-07T03:46:05;41.37;;;25.37;;
20170;SDS011;10245;51.344;6.620;2022-12-07T03:48:41;36.17;;;24.83;;
20170;SDS011;10245;51.344;6.620;2022-12-07T03:51:16;33.97;;;23.93;;
20170;SDS011;10245;51.344;6.620;2022-12-07T03:53:48;36.73;;;24.33;;
20170;SDS011;10245;51.344;6.620;2022-12-07T03:56:17;30.43;;;22.33;;
20170;SDS011;10245;51.344;6.620;2022-12-07T03:58:43;33.97;;;23.87;;
20170;SDS011;10245;51.344;6.620;2022-12-07T04:01:06;32.43;;;23.40;;
20170;SDS011;10245;51.344;6.620;2022-12-07T04:03:30;34.10;;;23.13;;
20170;SDS011;10245;51.344;6.620;2022-12-07T04:05:54;36.57;;;22.37;;
20170;SDS011;10245;51.344;6.620;2022-12-07T04:08:19;33.97;;;21.73;;
20170;SDS011;10245;51.344;6.620;2022-12-07T04:10:42;32.03;;;23.53;;
20170;SDS011;10245;51.344;6.620;2022-12-07T04:13:06;38.07;;;24.13;;
20170;SDS011;10245;51.344;6.620;2022-12-07T04:15:29;35.10;;;22.30;;
20170;SDS011;10245;51.344;6.620;2022-12-07T04:17:52;34.20;;;22.10;;
20170;SDS011;10245;51.344;6.620;2022-12-07T04:20:16;32.90;;;21.97;;
20170;SDS011;10245;51.344;6.620;2022-12-07T04:22:41;32.20;;;21.37;;
20170;SDS011;10245;51.344;6.620;2022-12-07T04:25:05;28.73;;;20.60;;
20170;SDS011;10245;51.344;6.620;2022-12-07T04:27:29;30.57;;;20.30;;
20170;SDS011;10245;51.344;6.620;2022-12-07T04:29:52;32.93;;;21.30;;
20170;SDS011;10245;51.344;6.620;2022-12-07T04:32:16;33.00;;;21.57;;
20170;SDS011;10245;51.344;6.620;2022-12-07T04:34:40;29.00;;;20.47;;
20170;SDS011;10245;51.344;6.620;2022-12-07T04:37:03;40.60;;;21.37;;
20170;SDS011;10245;51.344;6.620;2022-12-07T04:39:29;30.40;;;21.83;;
20170;SDS011;10245;51.344;6.620;2022-12-07T04:41:54;30.27;;;20.00;;
20170;SDS011;10245;51.344;6.620;2022-12-07T04:44:18;28.43;;;18.83;;
20170;SDS011;10245;51.344;6.620;2022-12-07T04:46:42;30.53;;;19.60;;
20170;SDS011;10245;51.344;6.620;2022-12-07T04:49:07;30.43;;;20.03;;
20170;SDS011;10245;51.344;6.620;2022-12-07T04:51:31;26.77;;;17.77;;
20170;SDS011;10245;51.344;6.620;2022-12-07T04:53:54;29.90;;;17.50;;
20170;SDS011;10245;51.344;6.620;2022-12-07T04:56:20;23.77;;;16.07;;
20170;SDS011;10245;51.344;6.620;2022-12-07T04:58:45;29.47;;;15.77;;
20170;SDS011;10245;51.344;6.620;2022-12-07T05:01:10;22.87;;;15.60;;
20170;SDS011;10245;51.344;6.620;2022-12-07T05:03:34;22.97;;;15.50;;
20170;SDS011;10245;51.344;6.620;2022-12-07T05:05:58;26.83;;;15.57;;
20170;SDS011;10245;51.344;6.620;2022-12-07T05:08:21;22.43;;;15.63;;
20170;SDS011;10245;51.344;6.620;2022-12-07T05:10:45;27.40;;;16.57;;
20170;SDS011;10245;51.344;6.620;2022-12-07T05:13:10;27.27;;;14.77;;
20170;SDS011;10245;51.344;6.620;2022-12-07T05:15:33;20.47;;;15.27;;
20170;SDS011;10245;51.344;6.620;2022-12-07T05:17:57;20.63;;;15.20;;
20170;SDS011;10245;51.344;6.620;2022-12-07T05:20:20;26.60;;;15.20;;
20170;SDS011;10245;51.344;6.620;2022-12-07T05:22:43;23.73;;;15.43;;
20170;SDS011;10245;51.344;6.620;2022-12-07T05:25:07;21.07;;;14.53;;
20170;SDS011;10245;51.344;6.620;2022-12-07T05:27:31;24.43;;;14.53;;
20170;SDS011;10245;51.344;6.620;2022-12-07T05:29:55;25.63;;;13.77;;
20170;SDS011;10245;51.344;6.620;2022-12-07T05:32:19;20.07;;;13.67;;
20170;SDS011;10245;51.344;6.620;2022-12-07T05:34:42;21.60;;;13.67;;
20170;SDS011;10245;51.344;6.620;2022-12-07T05:37:05;20.00;;;13.20;;
20170;SDS011;10245;51.344;6.620;2022-12-07T05:39:29;21.00;;;13.40;;
20170;SDS011;10245;51.344;6.620;2022-12-07T05:41:52;19.03;;;12.97;;
20170;SDS011;10245;51.344;6.620;2022-12-07T05:44:32;22.37;;;13.00;;
20170;SDS011;10245;51.344;6.620;2022-12-07T05:46:57;18.43;;;13.17;;
20170;SDS011;10245;51.344;6.620;2022-12-07T05:49:20;21.73;;;13.57;;
20170;SDS011;10245;51.344;6.620;2022-12-07T05:51:44;22.23;;;13.97;;
20170;SDS011;10245;51.344;6.620;2022-12-07T05:54:07;22.87;;;13.90;;
20170;SDS011;10245;51.344;6.620;2022-12-07T05:56:30;19.57;;;13.17;;
20170;SDS011;10245;51.344;6.620;2022-12-07T05:58:54;18.80;;;12.30;;
20170;SDS011;10245;51.344;6.620;2022-12-07T06:01:34;23.63;;;12.17;;
20170;SDS011;10245;51.344;6.620;2022-12-07T06:03:59;20.50;;;12.53;;
20170;SDS011;10245;51.344;6.620;2022-12-07T06:06:22;22.73;;;12.37;;
20170;SDS011;10245;51.344;6.620;2022-12-07T06:08:46;14.97;;;11.33;;
20170;SDS011;10245;51.344;6.620;2022-12-07T06:11:09;20.13;;;13.70;;
20170;SDS011;10245;51.344;6.620;2022-12-07T06:13:50;19.87;;;12.07;;
20170;SDS011;10245;51.344;6.620;2022-12-07T06:16:14;21.63;;;13.57;;
20170;SDS011;10245;51.344;6.620;2022-12-07T06:18:37;21.03;;;12.63;;
20170;SDS011;10245;51.344;6.620;2022-12-07T06:21:02;24.60;;;13.73;;
20170;SDS011;10245;51.344;6.620;2022-12-07T06:23:26;24.70;;;13.47;;
20170;SDS011;10245;51.344;6.620;2022-12-07T06:25:49;19.37;;;13.20;;
20170;SDS011;10245;51.344;6.620;2022-12-07T06:28:12;22.47;;;13.57;;
20170;SDS011;10245;51.344;6.620;2022-12-07T06:30:36;19.77;;;13.37;;
20170;SDS011;10245;51.344;6.620;2022-12-07T06:32:59;21.37;;;13.93;;
20170;SDS011;10245;51.344;6.620;2022-12-07T06:35:23;19.10;;;13.10;;
20170;SDS011;10245;51.344;6.620;2022-12-07T06:37:47;24.80;;;13.27;;
20170;SDS011;10245;51.344;6.620;2022-12-07T06:40:11;21.57;;;13.80;;
20170;SDS011;10245;51.344;6.620;2022-12-07T06:42:34;20.87;;;14.33;;
20170;SDS011;10245;51.344;6.620;2022-12-07T06:44:58;18.23;;;13.47;;
20170;SDS011;10245;51.344;6.620;2022-12-07T06:47:21;23.90;;;13.90;;
20170;SDS011;10245;51.344;6.620;2022-12-07T06:50:01;28.77;;;15.03;;
20170;SDS011;10245;51.344;6.620;2022-12-07T06:52:25;25.10;;;14.87;;
20170;SDS011;10245;51.344;6.620;2022-12-07T06:54:50;22.67;;;13.93;;
20170;SDS011;10245;51.344;6.620;2022-12-07T06:57:13;19.13;;;13.80;;
20170;SDS011;10245;51.344;6.620;2022-12-07T06:59:37;23.90;;;14.50;;
20170;SDS011;10245;51.344;6.620;2022-12-07T07:02:00;21.00;;;14.13;;
20170;SDS011;10245;51.344;6.620;2022-12-07T07:04:23;23.23;;;13.50;;
20170;SDS011;10245;51.344;6.620;2022-12-07T07:06:47;23.50;;;14.20;;
20170;SDS011;10245;51.344;6.620;2022-12-07T07:09:15;23.00;;;13.90;;
20170;SDS011;10245;51.344;6.620;2022-12-07T07:11:41;19.63;;;14.33;;
20170;SDS011;10245;51.344;6.620;2022-12-07T07:14:04;22.40;;;14.50;;
20170;SDS011;10245;51.344;6.620;2022-12-07T07:16:28;25.10;;;14.83;;
20170;SDS011;10245;51.344;6.620;2022-12-07T07:18:52;23.30;;;14.53;;
20170;SDS011;10245;51.344;6.620;2022-12-07T07:21:15;21.90;;;14.17;;
20170;SDS011;10245;51.344;6.620;2022-12-07T07:23:39;22.20;;;14.53;;
20170;SDS011;10245;51.344;6.620;2022-12-07T07:26:02;20.77;;;13.23;;
20170;SDS011;10245;51.344;6.620;2022-12-07T07:28:27;17.20;;;12.33;;
20170;SDS011;10245;51.344;6.620;2022-12-07T07:30:50;20.60;;;13.80;;
20170;SDS011;10245;51.344;6.620;2022-12-07T07:33:14;20.57;;;12.83;;
20170;SDS011;10245;51.344;6.620;2022-12-07T07:35:37;25.50;;;14.00;;
20170;SDS011;10245;51.344;6.620;2022-12-07T07:38:01;24.47;;;12.80;;
20170;SDS011;10245;51.344;6.620;2022-12-07T07:40:25;21.63;;;14.10;;
20170;SDS011;10245;51.344;6.620;2022-12-07T07:42:51;24.37;;;14.90;;
20170;SDS011;10245;51.344;6.620;2022-12-07T07:45:17;22.73;;;14.33;;
20170;SDS011;10245;51.344;6.620;2022-12-07T07:47:40;27.23;;;14.57;;
20170;SDS011;10245;51.344;6.620;2022-12-07T07:50:04;24.13;;;14.87;;
20170;SDS011;10245;51.344;6.620;2022-12-07T07:52:30;22.73;;;12.97;;
20170;SDS011;10245;51.344;6.620;2022-12-07T07:54:53;26.47;;;13.37;;
20170;SDS011;10245;51.344;6.620;2022-12-07T07:57:17;18.80;;;12.77;;
20170;SDS011;10245;51.344;6.620;2022-12-07T07:59:40;17.40;;;12.63;;
20170;SDS011;10245;51.344;6.620;2022-12-07T08:02:05;17.53;;;11.67;;
20170;SDS011;10245;51.344;6.620;2022-12-07T08:04:28;18.80;;;12.00;;
20170;SDS011;10245;51.344;6.620;2022-12-07T08:06:52;22.73;;;13.27;;
20170;SDS011;10245;51.344;6.620;2022-12-07T08:09:15;22.20;;;13.00;;
20170;SDS011;10245;51.344;6.620;2022-12-07T08:11:38;19.03;;;11.90;;
20170;SDS011;10245;51.344;6.620;2022-12-07T08:14:01;20.13;;;12.20;;
20170;SDS011;10245;51.344;6.620;2022-12-07T08:16:25;18.23;;;11.27;;
20170;SDS011;10245;51.344;6.620;2022-12-07T08:18:50;30.47;;;14.30;;
20170;SDS011;10245;51.344;6.620;2022-12-07T08:21:14;22.40;;;12.83;;
20170;SDS011;10245;51.344;6.620;2022-12-07T08:23:38;16.20;;;11.27;;
20170;SDS011;10245;51.344;6.620;2022-12-07T08:26:01;21.83;;;13.00;;
20170;SDS011;10245;51.344;6.620;2022-12-07T08:28:26;25.27;;;12.87;;
20170;SDS011;10245;51.344;6.620;2022-12-07T08:30:50;23.63;;;13.10;;
20170;SDS011;10245;51.344;6.620;2022-12-07T08:33:13;25.97;;;13.80;;
20170;SDS011;10245;51.344;6.620;2022-12-07T08:35:38;18.23;;;12.70;;
20170;SDS011;10245;51.344;6.620;2022-12-07T08:38:01;22.37;;;13.70;;
20170;SDS011;10245;51.344;6.620;2022-12-07T08:40:25;25.90;;;13.70;;
20170;SDS011;10245;51.344;6.620;2022-12-07T08:42:49;21.17;;;13.10;;
20170;SDS011;10245;51.344;6.620;2022-12-07T08:45:13;22.73;;;13.23;;
20170;SDS011;10245;51.344;6.620;2022-12-07T08:47:46;20.87;;;13.10;;
20170;SDS011;10245;51.344;6.620;2022-12-07T08:50:14;21.87;;;14.23;;
20170;SDS011;10245;51.344;6.620;2022-12-07T08:52:39;19.87;;;12.37;;
20170;SDS011;10245;51.344;6.620;2022-12-07T08:55:04;21.03;;;12.10;;
20170;SDS011;10245;51.344;6.620;2022-12-07T08:57:29;18.23;;;12.53;;
20170;SDS011;10245;51.344;6.620;2022-12-07T08:59:53;20.87;;;12.30;;
20170;SDS011;10245;51.344;6.620;2022-12-07T09:02:16;19.67;;;12.00;;
20170;SDS011;10245;51.344;6.620;2022-12-07T09:04:39;18.23;;;11.70;;
20170;SDS011;10245;51.344;6.620;2022-12-07T09:07:03;21.80;;;12.23;;
20170;SDS011;10245;51.344;6.620;2022-12-07T09:09:28;19.10;;;11.77;;
20170;SDS011;10245;51.344;6.620;2022-12-07T09:11:52;15.27;;;11.43;;
20170;SDS011;10245;51.344;6.620;2022-12-07T09:14:15;17.37;;;10.30;;
20170;SDS011;10245;51.344;6.620;2022-12-07T09:16:40;15.33;;;9.63;;
20170;SDS011;10245;51.344;6.620;2022-12-07T09:19:03;12.23;;;9.97;;
20170;SDS011;10245;51.344;6.620;2022-12-07T09:21:26;14.97;;;9.87;;
20170;SDS011;10245;51.344;6.620;2022-12-07T09:23:50;22.27;;;10.30;;
20170;SDS011;10245;51.344;6.620;2022-12-07T09:26:15;20.13;;;10.17;;
20170;SDS011;10245;51.344;6.620;2022-12-07T09:28:38;16.03;;;10.07;;
20170;SDS011;10245;51.344;6.620;2022-12-07T09:31:02;18.63;;;9.57;;
20170;SDS011;10245;51.344;6.620;2022-12-07T09:33:45;17.27;;;10.13;;
20170;SDS011;10245;51.344;6.620;2022-12-07T09:36:08;17.70;;;9.67;;
20170;SDS011;10245;51.344;6.620;2022-12-07T09:38:32;17.07;;;9.83;;
20170;SDS011;10245;51.344;6.620;2022-12-07T09:40:55;19.40;;;10.10;;
20170;SDS011;10245;51.344;6.620;2022-12-07T09:43:21;15.90;;;10.53;;
20170;SDS011;10245;51.344;6.620;2022-12-07T09:45:47;23.57;;;13.53;;
20170;SDS011;10245;51.344;6.620;2022-12-07T09:48:14;26.47;;;14.00;;
20170;SDS011;10245;51.344;6.620;2022-12-07T09:50:41;21.43;;;14.90;;
20170;SDS011;10245;51.344;6.620;2022-12-07T09:53:06;19.57;;;14.27;;
20170;SDS011;10245;51.344;6.620;2022-12-07T09:55:33;21.40;;;15.00;;
20170;SDS011;10245;51.344;6.620;2022-12-07T09:57:58;26.37;;;17.43;;
20170;SDS011;10245;51.344;6.620;2022-12-07T10:00:24;24.30;;;17.37;;
20170;SDS011;10245;51.344;6.620;2022-12-07T10:02:49;28.67;;;16.90;;
20170;SDS011;10245;51.344;6.620;2022-12-07T10:05:18;23.90;;;16.53;;
20170;SDS011;10245;51.344;6.620;2022-12-07T10:07:48;29.83;;;15.97;;
20170;SDS011;10245;51.344;6.620;2022-12-07T10:10:14;18.60;;;14.70;;
20170;SDS011;10245;51.344;6.620;2022-12-07T10:12:52;23.77;;;13.33;;
20170;SDS011;10245;51.344;6.620;2022-12-07T10:15:21;20.73;;;12.00;;
20170;SDS011;10245;51.344;6.620;2022-12-07T10:17:47;17.67;;;11.50;;
20170;SDS011;10245;51.344;6.620;2022-12-07T10:20:17;23.90;;;11.17;;
20170;SDS011;10245;51.344;6.620;2022-12-07T10:22:55;16.90;;;9.13;;
20170;SDS011;10245;51.344;6.620;2022-12-07T10:25:25;20.27;;;9.10;;
20170;SDS011;10245;51.344;6.620;2022-12-07T10:28:08;20.73;;;9.13;;
20170;SDS011;10245;51.344;6.620;2022-12-07T10:30:46;14.63;;;8.50;;
20170;SDS011;10245;51.344;6.620;2022-12-07T10:33:21;14.87;;;8.20;;
20170;SDS011;10245;51.344;6.620;2022-12-07T10:35:55;14.33;;;8.63;;
20170;SDS011;10245;51.344;6.620;2022-12-07T10:38:18;17.23;;;8.50;;
20170;SDS011;10245;51.344;6.620;2022-12-07T10:40:42;14.33;;;7.40;;
20170;SDS011;10245;51.344;6.620;2022-12-07T10:43:15;15.00;;;8.17;;
20170;SDS011;10245;51.344;6.620;2022-12-07T10:45:42;15.47;;;7.97;;
20170;SDS011;10245;51.344;6.620;2022-12-07T10:48:41;11.90;;;6.43;;
20170;SDS011;10245;51.344;6.620;2022-12-07T10:51:15;14.63;;;6.93;;
20170;SDS011;10245;51.344;6.620;2022-12-07T10:53:48;13.30;;;6.80;;
20170;SDS011;10245;51.344;6.620;2022-12-07T10:59:55;11.73;;;6.20;;
20170;SDS011;10245;51.344;6.620;2022-12-07T11:02:35;13.40;;;5.63;;
20170;SDS011;10245;51.344;6.620;2022-12-07T11:05:19;9.50;;;5.83;;
20170;SDS011;10245;51.344;6.620;2022-12-07T11:07:51;10.53;;;6.47;;
20170;SDS011;10245;51.344;6.620;2022-12-07T11:10:25;9.60;;;5.47;;
20170;SDS011;10245;51.344;6.620;2022-12-07T11:12:59;14.40;;;6.00;;
20170;SDS011;10245;51.344;6.620;2022-12-07T11:15:41;17.00;;;6.27;;
20170;SDS011;10245;51.344;6.620;2022-12-07T11:18:22;12.20;;;5.30;;
20170;SDS011;10245;51.344;6.620;2022-12-07T11:20:51;10.73;;;5.43;;
20170;SDS011;10245;51.344;6.620;2022-12-07T11:23:25;11.93;;;5.27;;
20170;SDS011;10245;51.344;6.620;2022-12-07T11:26:02;10.43;;;5.10;;
20170;SDS011;10245;51.344;6.620;2022-12-07T11:28:39;11.85;;;5.28;;
20170;SDS011;10245;51.344;6.620;2022-12-07T11:31:24;10.82;;;5.30;;
20170;SDS011;10245;51.344;6.620;2022-12-07T11:33:59;10.20;;;5.33;;
20170;SDS011;10245;51.344;6.620;2022-12-07T11:36:31;9.80;;;5.13;;
20170;SDS011;10245;51.344;6.620;2022-12-07T11:39:01;14.20;;;5.20;;
20170;SDS011;10245;51.344;6.620;2022-12-07T11:41:34;9.07;;;5.07;;
20170;SDS011;10245;51.344;6.620;2022-12-07T11:44:02;9.90;;;4.70;;
20170;SDS011;10245;51.344;6.620;2022-12-07T11:46:33;13.70;;;5.07;;
20170;SDS011;10245;51.344;6.620;2022-12-07T11:49:10;10.33;;;5.57;;
20170;SDS011;10245;51.344;6.620;2022-12-07T11:51:41;10.53;;;4.27;;
20170;SDS011;10245;51.344;6.620;2022-12-07T11:54:10;12.63;;;4.30;;
20170;SDS011;10245;51.344;6.620;2022-12-07T11:56:37;11.70;;;4.53;;
20170;SDS011;10245;51.344;6.620;2022-12-07T11:59:02;12.45;;;4.35;;
20170;SDS011;10245;51.344;6.620;2022-12-07T12:01:37;11.70;;;4.70;;
20170;SDS011;10245;51.344;6.620;2022-12-07T12:04:18;13.98;;;4.07;;
20170;SDS011;10245;51.344;6.620;2022-12-07T12:06:52;11.68;;;4.47;;
20170;SDS011;10245;51.344;6.620;2022-12-07T12:09:16;11.20;;;4.40;;
20170;SDS011;10245;51.344;6.620;2022-12-07T12:15:23;9.05;;;4.50;;
20170;SDS011;10245;51.344;6.620;2022-12-07T12:18:07;10.10;;;4.27;;
20170;SDS011;10245;51.344;6.620;2022-12-07T12:21:08;16.13;;;5.20;;
20170;SDS011;10245;51.344;6.620;2022-12-07T12:23:40;12.50;;;4.93;;
20170;SDS011;10245;51.344;6.620;2022-12-07T12:26:07;13.77;;;4.33;;
20170;SDS011;10245;51.344;6.620;2022-12-07T12:28:41;14.98;;;4.57;;
20170;SDS011;10245;51.344;6.620;2022-12-07T12:31:15;10.63;;;4.78;;
20170;SDS011;10245;51.344;6.620;2022-12-07T12:33:57;12.77;;;4.47;;
20170;SDS011;10245;51.344;6.620;2022-12-07T12:36:25;15.33;;;4.60;;
20170;SDS011;10245;51.344;6.620;2022-12-07T12:39:11;8.60;;;4.18;;
20170;SDS011;10245;51.344;6.620;2022-12-07T12:41:56;12.43;;;4.60;;
20170;SDS011;10245;51.344;6.620;2022-12-07T12:44:40;12.37;;;4.90;;
20170;SDS011;10245;51.344;6.620;2022-12-07T12:47:41;10.27;;;5.07;;
20170;SDS011;10245;51.344;6.620;2022-12-07T12:50:17;13.20;;;5.17;;
20170;SDS011;10245;51.344;6.620;2022-12-07T12:52:54;14.60;;;4.90;;
20170;SDS011;10245;51.344;6.620;2022-12-07T12:55:28;10.32;;;4.78;;
20170;SDS011;10245;51.344;6.620;2022-12-07T12:58:33;12.85;;;4.45;;
20170;SDS011;10245;51.344;6.620;2022-12-07T13:04:02;11.77;;;4.10;;
20170;SDS011;10245;51.344;6.620;2022-12-07T13:06:40;7.40;;;4.00;;
20170;SDS011;10245;51.344;6.620;2022-12-07T13:09:15;12.48;;;3.80;;
20170;SDS011;10245;51.344;6.620;2022-12-07T13:11:44;9.60;;;3.77;;
20170;SDS011;10245;51.344;6.620;2022-12-07T13:17:07;11.60;;;3.53;;
20170;SDS011;10245;51.344;6.620;2022-12-07T13:22:33;7.53;;;3.20;;
20170;SDS011;10245;51.344;6.620;2022-12-07T13:25:19;7.13;;;2.75;;
20170;SDS011;10245;51.344;6.620;2022-12-07T13:28:00;10.07;;;3.25;;
20170;SDS011;10245;51.344;6.620;2022-12-07T13:30:31;9.38;;;2.95;;
20170;SDS011;10245;51.344;6.620;2022-12-07T13:33:08;11.98;;;3.08;;
20170;SDS011;10245;51.344;6.620;2022-12-07T13:35:39;11.48;;;3.03;;
20170;SDS011;10245;51.344;6.620;2022-12-07T13:38:04;7.90;;;2.33;;
20170;SDS011;10245;51.344;6.620;2022-12-07T13:40:41;5.93;;;2.67;;
20170;SDS011;10245;51.344;6.620;2022-12-07T13:43:04;4.55;;;1.83;;
20170;SDS011;10245;51.344;6.620;2022-12-07T13:45:35;7.28;;;2.50;;
20170;SDS011;10245;51.344;6.620;2022-12-07T13:48:14;5.85;;;2.25;;
20170;SDS011;10245;51.344;6.620;2022-12-07T13:50:48;13.45;;;2.40;;
20170;SDS011;10245;51.344;6.620;2022-12-07T13:53:16;6.47;;;2.47;;
20170;SDS011;10245;51.344;6.620;2022-12-07T13:55:45;4.43;;;2.50;;
20170;SDS011;10245;51.344;6.620;2022-12-07T13:58:14;8.98;;;2.80;;
20170;SDS011;10245;51.344;6.620;2022-12-07T14:00:39;6.25;;;2.05;;
20170;SDS011;10245;51.344;6.620;2022-12-07T14:03:04;11.30;;;3.03;;
20170;SDS011;10245;51.344;6.620;2022-12-07T14:06:05;7.70;;;3.30;;
20170;SDS011;10245;51.344;6.620;2022-12-07T14:08:36;11.10;;;3.42;;
20170;SDS011;10245;51.344;6.620;2022-12-07T14:11:00;7.47;;;3.47;;
20170;SDS011;10245;51.344;6.620;2022-12-07T14:13:27;10.07;;;3.63;;
20170;SDS011;10245;51.344;6.620;2022-12-07T14:15:55;9.38;;;3.20;;
20170;SDS011;10245;51.344;6.620;2022-12-07T14:18:24;8.55;;;3.97;;
20170;SDS011;10245;51.344;6.620;2022-12-07T14:20:50;9.77;;;3.58;;
20170;SDS011;10245;51.344;6.620;2022-12-07T14:23:25;14.95;;;3.60;;
20170;SDS011;10245;51.344;6.620;2022-12-07T14:25:50;12.30;;;4.07;;
20170;SDS011;10245;51.344;6.620;2022-12-07T14:28:26;10.00;;;3.90;;
20170;SDS011;10245;51.344;6.620;2022-12-07T14:30:51;10.73;;;4.57;;
20170;SDS011;10245;51.344;6.620;2022-12-07T14:33:19;11.77;;;4.53;;
20170;SDS011;10245;51.344;6.620;2022-12-07T14:35:43;14.70;;;4.75;;
20170;SDS011;10245;51.344;6.620;2022-12-07T14:38:07;10.80;;;4.00;;
20170;SDS011;10245;51.344;6.620;2022-12-07T14:40:30;10.98;;;4.57;;
20170;SDS011;10245;51.344;6.620;2022-12-07T14:42:55;9.32;;;3.90;;
20170;SDS011;10245;51.344;6.620;2022-12-07T14:45:25;12.20;;;4.80;;
20170;SDS011;10245;51.344;6.620;2022-12-07T14:47:48;11.80;;;4.68;;
20170;SDS011;10245;51.344;6.620;2022-12-07T14:50:32;10.43;;;4.68;;